createdAt,value
2023-02-14T00:01:36.683Z,92.50
2023-02-14T00:04:22.293Z,92.40
2023-02-14T00:07:07.830Z,92.30
2023-02-14T00:09:53.371Z,92.30
2023-02-14T00:12:38.778Z,92.30
2023-02-14T00:15:25.797Z,92.30
2023-02-14T00:18:11.270Z,92.30
2023-02-14T00:21:00.385Z,92.20
2023-02-14T00:23:49.033Z,92.20
2023-02-14T00:26:34.520Z,92.30
2023-02-14T00:29:29.511Z,92.30
2023-02-14T00:32:14.877Z,92.40
2023-02-14T00:35:00.240Z,92.40
2023-02-14T00:37:48.814Z,92.40
2023-02-14T00:40:37.123Z,92.60
2023-02-14T00:43:23.342Z,93.00
2023-02-14T00:46:10.022Z,92.80
2023-02-14T00:49:00.096Z,92.90
2023-02-14T00:51:45.632Z,92.90
2023-02-14T00:54:31.341Z,92.90
2023-02-14T00:57:17.457Z,93.00
2023-02-14T01:00:03.948Z,92.90
2023-02-14T01:02:49.160Z,93.30
2023-02-14T01:05:34.816Z,92.80
2023-02-14T01:08:22.773Z,93.00
2023-02-14T01:11:18.765Z,92.90
2023-02-14T01:14:06.275Z,92.90
2023-02-14T01:16:54.597Z,92.80
2023-02-14T01:19:42.766Z,92.80
2023-02-14T01:22:34.729Z,92.80
2023-02-14T01:25:20.143Z,93.00
2023-02-14T01:28:06.834Z,92.80
2023-02-14T01:30:54.500Z,92.80
2023-02-14T01:33:41.382Z,93.20
2023-02-14T01:36:30.192Z,92.80
2023-02-14T01:39:15.809Z,92.80
2023-02-14T01:42:06.456Z,92.80
2023-02-14T01:45:18.605Z,92.90
2023-02-14T01:48:04.985Z,92.80
2023-02-14T01:50:53.826Z,92.80
2023-02-14T01:53:46.473Z,92.80
2023-02-14T01:56:38.255Z,92.80
2023-02-14T01:59:28.157Z,92.90
2023-02-14T02:02:13.710Z,93.00
2023-02-14T02:05:00.569Z,93.00
2023-02-14T02:07:46.238Z,93.00
2023-02-14T02:10:31.786Z,93.00
2023-02-14T02:13:21.632Z,93.00
2023-02-14T02:16:48.122Z,93.10
2023-02-14T02:19:51.613Z,93.00
2023-02-14T02:23:11.277Z,93.00
2023-02-14T02:26:21.727Z,93.10
2023-02-14T02:29:31.690Z,93.00
2023-02-14T02:32:20.497Z,93.10
2023-02-14T02:35:24.808Z,93.30
2023-02-14T02:38:19.519Z,93.30
2023-02-14T02:41:19.870Z,93.40
2023-02-14T02:44:21.609Z,93.40
2023-02-14T02:47:15.785Z,93.50
2023-02-14T02:50:41.265Z,93.40
2023-02-14T02:53:33.780Z,93.40
2023-02-14T02:56:48.210Z,93.40
2023-02-14T02:59:39.146Z,93.40
2023-02-14T03:02:58.919Z,93.60
2023-02-14T03:05:44.806Z,93.50
2023-02-14T03:08:30.352Z,93.60
2023-02-14T03:11:15.797Z,93.50
2023-02-14T03:14:20.381Z,93.60
2023-02-14T03:17:29.540Z,93.60
2023-02-14T03:20:29.006Z,93.70
2023-02-14T03:23:25.851Z,93.80
2023-02-14T03:26:14.422Z,94.00
2023-02-14T03:29:15.034Z,93.90
2023-02-14T03:32:34.936Z,94.00
2023-02-14T03:35:37.869Z,94.00
2023-02-14T03:39:03.365Z,94.10
2023-02-14T03:41:56.753Z,94.10
2023-02-14T03:44:44.991Z,94.10
2023-02-14T03:47:34.589Z,94.10
2023-02-14T03:50:20.799Z,94.00
2023-02-14T03:53:09.106Z,94.00
2023-02-14T03:56:03.469Z,94.00
2023-02-14T03:58:53.052Z,94.00
2023-02-14T04:01:48.150Z,94.00
2023-02-14T04:04:41.977Z,94.10
2023-02-14T04:07:27.763Z,94.00
2023-02-14T04:10:13.681Z,93.90
2023-02-14T04:13:02.412Z,94.00
2023-02-14T04:15:50.001Z,93.90
2023-02-14T04:18:57.046Z,93.90
2023-02-14T04:21:48.528Z,94.00
2023-02-14T04:24:34.168Z,94.00
2023-02-14T04:27:23.723Z,94.00
2023-02-14T04:30:13.459Z,94.20
2023-02-14T04:33:03.589Z,94.20
2023-02-14T04:35:55.079Z,94.20
2023-02-14T04:38:40.595Z,94.30
2023-02-14T04:41:29.522Z,94.20
2023-02-14T04:44:14.857Z,94.20
2023-02-14T04:47:10.473Z,94.10
2023-02-14T04:49:58.812Z,94.20
2023-02-14T04:52:44.875Z,94.20
2023-02-14T04:55:30.453Z,94.10
2023-02-14T04:58:16.636Z,94.20
2023-02-14T05:01:02.826Z,94.10
2023-02-14T05:03:52.478Z,94.10
2023-02-14T05:06:40.262Z,94.40
2023-02-14T05:09:26.043Z,94.20
2023-02-14T05:12:11.952Z,94.20
2023-02-14T05:14:58.199Z,94.30
2023-02-14T05:17:47.077Z,94.40
2023-02-14T05:20:33.483Z,94.40
2023-02-14T05:23:19.267Z,94.30
2023-02-14T05:26:10.451Z,94.30
2023-02-14T05:28:57.848Z,94.40
2023-02-14T05:31:47.336Z,94.50
2023-02-14T05:34:33.162Z,94.60
2023-02-14T05:37:19.416Z,94.70
2023-02-14T05:40:07.530Z,94.80
2023-02-14T05:42:54.052Z,94.80
2023-02-14T05:45:39.783Z,94.80
2023-02-14T05:48:25.879Z,94.70
2023-02-14T05:51:12.168Z,94.70
2023-02-14T05:53:59.905Z,94.70
2023-02-14T05:56:45.268Z,94.70
2023-02-14T05:59:30.942Z,94.60
2023-02-14T06:02:16.680Z,94.70
2023-02-14T06:05:02.137Z,94.60
2023-02-14T06:07:51.008Z,94.70
2023-02-14T06:10:36.659Z,94.60
2023-02-14T06:13:22.526Z,94.60
2023-02-14T06:16:08.392Z,94.60
2023-02-14T06:18:54.052Z,94.60
2023-02-14T06:21:39.612Z,94.70
2023-02-14T06:24:25.191Z,94.60
2023-02-14T06:27:10.763Z,94.60
2023-02-14T06:29:56.323Z,94.60
2023-02-14T06:32:42.746Z,94.60
2023-02-14T06:35:28.004Z,94.70
2023-02-14T06:38:13.243Z,94.60
2023-02-14T06:41:07.784Z,94.70
2023-02-14T06:43:53.403Z,94.70
2023-02-14T06:46:38.816Z,94.70
2023-02-14T06:49:25.235Z,94.80
2023-02-14T06:52:13.986Z,94.80
2023-02-14T06:54:59.774Z,94.70
2023-02-14T06:57:45.653Z,94.70
2023-02-14T07:00:31.363Z,94.70
2023-02-14T07:03:19.220Z,94.60
2023-02-14T07:06:05.212Z,94.60
2023-02-14T07:08:50.693Z,94.70
2023-02-14T07:11:36.341Z,94.70
2023-02-14T07:14:21.944Z,94.70
2023-02-14T07:17:07.497Z,94.80
2023-02-14T07:19:53.168Z,94.80
2023-02-14T07:22:39.323Z,95.10
2023-02-14T07:25:25.661Z,94.90
2023-02-14T07:28:10.957Z,95.00
2023-02-14T07:31:01.513Z,95.00
2023-02-14T07:33:47.764Z,95.20
2023-02-14T07:36:33.928Z,95.20
2023-02-14T07:39:19.381Z,95.20
2023-02-14T07:42:05.073Z,95.30
2023-02-14T07:44:51.155Z,95.50
2023-02-14T07:47:36.788Z,95.50
2023-02-14T07:50:23.310Z,95.60
2023-02-14T07:53:08.646Z,95.70
2023-02-14T07:55:55.546Z,95.80
2023-02-14T07:58:43.448Z,95.80
2023-02-14T08:01:29.148Z,95.80
2023-02-14T08:04:14.410Z,95.90
2023-02-14T08:07:00.204Z,96.00
2023-02-14T08:09:45.716Z,96.10
2023-02-14T08:12:52.280Z,96.10
2023-02-14T08:15:56.186Z,96.10
2023-02-14T08:18:47.552Z,96.20
2023-02-14T08:21:33.150Z,96.20
2023-02-14T08:24:18.914Z,96.20
2023-02-14T08:27:04.721Z,96.20
2023-02-14T08:29:50.213Z,96.30
2023-02-14T08:32:35.824Z,96.30
2023-02-14T08:35:21.188Z,96.30
2023-02-14T08:38:06.934Z,96.30
2023-02-14T08:40:53.011Z,96.40
2023-02-14T08:43:38.412Z,96.40
2023-02-14T08:46:24.156Z,96.40
2023-02-14T08:49:10.453Z,96.50
2023-02-14T08:51:56.131Z,96.60
2023-02-14T08:54:42.895Z,96.60
2023-02-14T08:57:28.819Z,96.70
2023-02-14T09:00:14.796Z,96.80
2023-02-14T09:03:00.569Z,96.80
2023-02-14T09:05:45.968Z,96.80
2023-02-14T09:08:31.973Z,96.90
2023-02-14T09:11:23.188Z,97.00
2023-02-14T09:14:10.757Z,97.10
2023-02-14T09:16:56.532Z,97.10
2023-02-14T09:19:44.850Z,97.10
2023-02-14T09:22:32.809Z,97.10
2023-02-14T09:25:26.646Z,97.10
2023-02-14T09:28:14.682Z,97.20
2023-02-14T09:31:10.837Z,97.10
2023-02-14T09:34:14.785Z,97.30
2023-02-14T09:37:22.157Z,97.30
2023-02-14T09:40:08.768Z,97.30
2023-02-14T09:43:02.199Z,97.10
2023-02-14T09:45:53.486Z,97.20
2023-02-14T09:48:44.368Z,97.20
2023-02-14T09:51:32.676Z,97.10
2023-02-14T09:54:24.784Z,97.20
2023-02-14T09:57:27.461Z,97.30
2023-02-14T10:00:29.211Z,97.30
2023-02-14T10:03:36.120Z,97.20
2023-02-14T10:06:42.807Z,97.10
2023-02-14T10:09:40.736Z,97.00
2023-02-14T10:12:35.253Z,96.90
2023-02-14T10:15:28.158Z,96.90
2023-02-14T10:18:47.142Z,96.70
2023-02-14T10:22:09.484Z,97.00
2023-02-14T10:25:15.991Z,96.60
2023-02-14T10:28:02.355Z,96.40
2023-02-14T10:31:02.278Z,96.20
2023-02-14T10:34:04.083Z,96.20
2023-02-14T10:37:16.884Z,96.20
2023-02-14T10:40:38.976Z,96.20
2023-02-14T10:43:54.500Z,96.20
2023-02-14T10:46:42.897Z,95.80
2023-02-14T10:50:11.069Z,95.80
2023-02-14T10:53:17.713Z,95.70
2023-02-14T10:56:18.532Z,95.30
2023-02-14T10:59:22.056Z,95.10
2023-02-14T11:02:13.563Z,95.20
2023-02-14T11:05:01.162Z,94.40
2023-02-14T11:07:46.681Z,93.90
2023-02-14T11:10:34.224Z,94.00
2023-02-14T11:13:35.125Z,94.20
2023-02-14T11:16:35.903Z,94.80
2023-02-14T11:19:28.141Z,94.30
2023-02-14T11:22:30.059Z,94.20
2023-02-14T11:25:31.349Z,93.60
2023-02-14T11:28:19.801Z,92.70
2023-02-14T11:31:05.788Z,92.70
2023-02-14T11:33:51.853Z,93.30
2023-02-14T11:36:42.449Z,92.90
2023-02-14T11:39:32.641Z,92.90
2023-02-14T11:42:33.476Z,93.80
2023-02-14T11:45:42.392Z,91.70
2023-02-14T11:48:37.712Z,91.80
2023-02-14T11:51:29.849Z,90.20
2023-02-14T11:54:36.670Z,90.10
2023-02-14T11:57:35.941Z,82.30
2023-02-14T12:00:27.091Z,77.60
2023-02-14T12:03:19.469Z,68.70
2023-02-14T12:06:05.513Z,66.20
2023-02-14T12:08:51.164Z,65.60
2023-02-14T12:11:37.288Z,61.90
2023-02-14T12:14:24.380Z,55.70
2023-02-14T12:17:31.571Z,53.60
2023-02-14T12:20:39.502Z,48.80
2023-02-14T12:23:32.025Z,45.60
2023-02-14T12:26:43.035Z,44.40
2023-02-14T12:29:39.554Z,43.20
2023-02-14T12:32:28.483Z,41.90
2023-02-14T12:35:22.268Z,37.20
2023-02-14T12:38:45.825Z,37.60
2023-02-14T12:41:59.955Z,36.30
2023-02-14T12:45:02.255Z,33.20
2023-02-14T12:48:25.141Z,31.90
2023-02-14T12:51:28.001Z,32.10
2023-02-14T12:54:34.014Z,33.50
2023-02-14T12:57:33.762Z,31.20
2023-02-14T13:00:42.169Z,29.20
2023-02-14T13:03:45.708Z,29.40
2023-02-14T13:06:53.223Z,30.10
2023-02-14T13:09:54.656Z,30.90
2023-02-14T13:13:07.502Z,30.90
2023-02-14T13:16:02.207Z,30.00
2023-02-14T13:18:50.852Z,29.10
2023-02-14T13:21:40.668Z,27.40
2023-02-14T13:24:38.701Z,27.40
2023-02-14T13:27:28.798Z,28.80
2023-02-14T13:30:30.110Z,28.20
2023-02-14T13:33:38.143Z,27.30
2023-02-14T13:36:27.444Z,26.40
2023-02-14T13:39:29.680Z,25.80
2023-02-14T13:42:50.176Z,24.20
2023-02-14T13:45:36.029Z,24.20
2023-02-14T13:48:28.530Z,23.80
2023-02-14T13:51:14.201Z,23.10
2023-02-14T13:54:02.526Z,22.50
2023-02-14T13:56:48.626Z,22.80
2023-02-14T13:59:35.692Z,22.30
2023-02-14T14:02:29.915Z,22.80
2023-02-14T14:05:31.107Z,23.40
2023-02-14T14:08:23.281Z,24.20
2023-02-14T14:11:22.872Z,23.80
2023-02-14T14:14:30.520Z,24.00
2023-02-14T14:17:21.300Z,24.50
2023-02-14T14:20:22.032Z,24.60
2023-02-14T14:23:32.258Z,24.20
2023-02-14T14:26:35.161Z,24.90
2023-02-14T14:29:51.806Z,24.70
2023-02-14T14:32:41.552Z,25.10
2023-02-14T14:35:29.923Z,25.50
2023-02-14T14:38:15.172Z,25.60
2023-02-14T14:41:04.192Z,25.60
2023-02-14T14:43:50.608Z,25.50
2023-02-14T14:46:37.096Z,25.40
2023-02-14T14:49:24.020Z,25.30
2023-02-14T14:52:38.374Z,24.70
2023-02-14T14:55:30.962Z,24.90
2023-02-14T14:58:39.090Z,24.10
2023-02-14T15:01:38.587Z,24.20
2023-02-14T15:04:35.303Z,23.70
2023-02-14T15:07:32.875Z,24.70
2023-02-14T15:10:26.995Z,23.90
2023-02-14T15:13:51.324Z,24.80
2023-02-14T15:16:58.020Z,25.80
2023-02-14T15:19:47.254Z,25.60
2023-02-14T15:22:50.457Z,26.20
2023-02-14T15:25:37.810Z,25.80
2023-02-14T15:28:35.992Z,26.00
2023-02-14T15:31:22.068Z,25.90
2023-02-14T15:34:10.148Z,26.30
2023-02-14T15:37:03.635Z,26.90
2023-02-14T15:39:52.708Z,26.30
2023-02-14T15:42:43.881Z,26.00
2023-02-14T15:45:30.826Z,26.80
2023-02-14T15:48:24.152Z,28.00
2023-02-14T15:51:17.590Z,29.60
2023-02-14T15:54:08.275Z,30.30
2023-02-14T15:56:54.445Z,30.20
2023-02-14T15:59:42.115Z,29.90
2023-02-14T16:02:37.881Z,29.90
2023-02-14T16:05:27.965Z,30.00
2023-02-14T16:08:35.210Z,30.00
2023-02-14T16:11:37.170Z,30.20
2023-02-14T16:14:35.325Z,30.50
2023-02-14T16:17:35.762Z,30.90
2023-02-14T16:20:28.112Z,32.20
2023-02-14T16:23:36.949Z,32.00
2023-02-14T16:26:24.099Z,32.50
2023-02-14T16:29:17.934Z,33.20
2023-02-14T16:32:33.075Z,34.20
2023-02-14T16:35:21.607Z,36.10
2023-02-14T16:38:11.716Z,38.00
2023-02-14T16:40:57.915Z,39.50
2023-02-14T16:43:43.768Z,41.00
2023-02-14T16:46:31.226Z,42.40
2023-02-14T16:49:19.127Z,43.50
2023-02-14T16:52:13.739Z,45.10
2023-02-14T16:54:59.371Z,46.40
2023-02-14T16:57:50.353Z,47.60
2023-02-14T17:00:37.598Z,48.90
2023-02-14T17:03:22.965Z,50.20
2023-02-14T17:06:13.001Z,51.40
2023-02-14T17:09:03.053Z,52.30
2023-02-14T17:11:51.301Z,53.30
2023-02-14T17:14:38.936Z,53.90
2023-02-14T17:17:24.979Z,54.70
2023-02-14T17:20:10.586Z,55.60
2023-02-14T17:22:57.557Z,56.30
2023-02-14T17:25:46.545Z,57.00
2023-02-14T17:28:32.158Z,57.70
2023-02-14T17:31:18.292Z,58.40
2023-02-14T17:34:04.090Z,59.60
2023-02-14T17:36:49.582Z,59.60
2023-02-14T17:39:35.090Z,60.20
2023-02-14T17:42:20.512Z,60.90
2023-02-14T17:45:06.700Z,61.50
2023-02-14T17:47:52.485Z,62.20
2023-02-14T17:50:37.938Z,62.90
2023-02-14T17:53:23.559Z,63.70
2023-02-14T17:56:14.700Z,64.20
2023-02-14T17:59:00.615Z,64.90
2023-02-14T18:01:46.211Z,65.40
2023-02-14T18:04:33.697Z,66.00
2023-02-14T18:07:19.161Z,66.50
2023-02-14T18:10:08.858Z,67.00
2023-02-14T18:12:54.096Z,67.50
2023-02-14T18:15:39.598Z,68.00
2023-02-14T18:18:25.248Z,68.50
2023-02-14T18:21:13.980Z,69.00
2023-02-14T18:24:00.414Z,69.50
2023-02-14T18:26:46.327Z,69.90
2023-02-14T18:29:32.410Z,70.30
2023-02-14T18:32:17.868Z,70.80
2023-02-14T18:35:03.829Z,71.20
2023-02-14T18:37:49.628Z,71.60
2023-02-14T18:40:35.978Z,72.80
2023-02-14T18:43:21.497Z,72.70
2023-02-14T18:46:09.949Z,72.70
2023-02-14T18:48:58.377Z,72.90
2023-02-14T18:51:43.739Z,73.40
2023-02-14T18:54:29.848Z,73.50
2023-02-14T18:57:15.764Z,74.00
2023-02-14T19:00:05.071Z,74.20
2023-02-14T19:02:50.479Z,74.60
2023-02-14T19:05:39.206Z,74.80
2023-02-14T19:08:24.712Z,75.20
2023-02-14T19:11:21.706Z,75.20
2023-02-14T19:14:10.260Z,75.50
2023-02-14T19:16:55.921Z,75.90
2023-02-14T19:19:41.613Z,76.00
2023-02-14T19:22:26.980Z,76.90
2023-02-14T19:25:12.408Z,76.50
2023-02-14T19:28:06.930Z,76.90
2023-02-14T19:30:52.956Z,77.20
2023-02-14T19:33:40.516Z,77.40
2023-02-14T19:36:26.356Z,77.60
2023-02-14T19:39:12.906Z,77.80
2023-02-14T19:41:59.786Z,78.20
2023-02-14T19:44:46.204Z,78.40
2023-02-14T19:47:46.535Z,79.10
2023-02-14T19:50:32.323Z,78.80
2023-02-14T19:53:17.912Z,78.80
2023-02-14T19:56:03.299Z,79.00
2023-02-14T19:58:50.935Z,79.20
2023-02-14T20:01:38.148Z,79.30
2023-02-14T20:04:25.725Z,79.60
2023-02-14T20:07:11.244Z,79.90
2023-02-14T20:09:56.923Z,80.20
2023-02-14T20:12:42.295Z,80.40
2023-02-14T20:15:29.214Z,80.60
2023-02-14T20:18:14.524Z,80.70
2023-02-14T20:21:03.115Z,81.00
2023-02-14T20:23:48.979Z,81.40
2023-02-14T20:26:37.407Z,81.60
2023-02-14T20:29:24.715Z,81.50
2023-02-14T20:32:16.306Z,81.60
2023-02-14T20:35:04.605Z,82.00
2023-02-14T20:37:52.172Z,82.10
2023-02-14T20:40:41.744Z,82.30
2023-02-14T20:43:27.104Z,82.60
2023-02-14T20:46:12.739Z,82.70
2023-02-14T20:48:58.222Z,82.70
2023-02-14T20:51:44.482Z,82.90
2023-02-14T20:54:32.413Z,83.40
2023-02-14T20:57:18.224Z,83.40
2023-02-14T21:00:08.711Z,83.30
2023-02-14T21:02:54.053Z,83.50
2023-02-14T21:05:40.476Z,83.70
2023-02-14T21:08:26.060Z,83.90
2023-02-14T21:11:13.294Z,84.00
2023-02-14T21:14:00.548Z,84.40
2023-02-14T21:16:46.002Z,84.40
2023-02-14T21:19:35.123Z,84.70
2023-02-14T21:22:20.875Z,84.90
2023-02-14T21:25:07.648Z,85.00
2023-02-14T21:27:59.126Z,85.20
2023-02-14T21:30:44.713Z,85.40
2023-02-14T21:33:32.069Z,85.50
2023-02-14T21:36:18.304Z,85.60
2023-02-14T21:39:08.782Z,85.80
2023-02-14T21:41:57.977Z,86.00
2023-02-14T21:45:02.075Z,86.00
2023-02-14T21:48:12.725Z,86.10
2023-02-14T21:50:58.438Z,86.30
2023-02-14T21:53:48.682Z,86.60
2023-02-14T21:56:37.995Z,86.70
2023-02-14T21:59:23.427Z,86.90
2023-02-14T22:02:11.755Z,87.30
2023-02-14T22:04:56.972Z,87.10
2023-02-14T22:07:42.640Z,87.40
2023-02-14T22:10:29.538Z,87.50
2023-02-14T22:13:14.860Z,87.70
2023-02-14T22:16:16.980Z,87.60
2023-02-14T22:19:06.558Z,87.60
2023-02-14T22:21:52.307Z,87.70
2023-02-14T22:24:37.857Z,88.00
2023-02-14T22:27:23.488Z,88.00
2023-02-14T22:30:09.188Z,88.10
2023-02-14T22:32:54.483Z,88.10
2023-02-14T22:35:40.265Z,88.20
2023-02-14T22:38:25.713Z,88.30
2023-02-14T22:41:14.364Z,88.60
2023-02-14T22:44:00.131Z,88.70
2023-02-14T22:46:45.694Z,88.70
2023-02-14T22:49:31.220Z,88.90
2023-02-14T22:52:16.523Z,89.20
2023-02-14T22:55:02.161Z,89.50
2023-02-14T22:57:50.698Z,89.70
2023-02-14T23:00:36.281Z,89.60
2023-02-14T23:03:21.612Z,89.70
2023-02-14T23:06:07.456Z,90.00
2023-02-14T23:08:54.432Z,90.30
2023-02-14T23:11:41.725Z,90.10
2023-02-14T23:14:45.642Z,90.10
2023-02-14T23:17:49.596Z,90.30
2023-02-14T23:20:53.272Z,90.20
2023-02-14T23:23:38.562Z,89.80
2023-02-14T23:26:30.099Z,90.10
2023-02-14T23:29:18.700Z,90.00
2023-02-14T23:32:09.012Z,90.00
2023-02-14T23:34:54.740Z,90.00
2023-02-14T23:37:40.062Z,90.00
2023-02-14T23:40:25.776Z,90.20
2023-02-14T23:43:11.294Z,90.20
2023-02-14T23:46:00.753Z,90.40
2023-02-14T23:48:46.074Z,90.40
2023-02-14T23:51:32.636Z,90.30
2023-02-14T23:54:18.015Z,90.40
2023-02-14T23:57:04.705Z,90.40
2023-02-14T23:59:52.925Z,90.60
